ITY121 LIPZ-LIRF
Flight info
| Callsign | ITY121 |
|---|---|
| Flight time | N/A |
| Altitude | 33000 |
| Route | CHI DCT DIPVO DCT NIKMA DCT RITEB |
| Aircraft | A321/M-SDE3FGHIRWY/LB1 |
Departure
| Time | 2026-05-04 17:00 |
|---|---|
| Airport | Venice Marco Polo Airport (LIPZ) |
Arrival
| Time | N/A |
|---|---|
| Airport | Rome–Fiumicino Leonardo da Vinci International Airport (LIRF) |
| Time | Latitude | Longitude | Altitude | Speed | Heading |
|---|---|---|---|---|---|
| 2026-05-04 16:24 | 45.50428 | 12.34229 | 16 ft | 0 kts | 268° |
| 2026-05-04 16:52 | 45.50428 | 12.34244 | 16 ft | 3 kts | 268° |
| 2026-05-04 16:53 | 45.50430 | 12.34297 | 16 ft | 3 kts | 268° |
| 2026-05-04 16:53 | 45.50446 | 12.34330 | 18 ft | 0 kts | 182° |
| 2026-05-04 16:55 | 45.50436 | 12.34332 | 16 ft | 5 kts | 169° |
| 2026-05-04 16:56 | 45.50364 | 12.34352 | 16 ft | 11 kts | 176° |
| 2026-05-04 16:56 | 45.50096 | 12.34100 | 16 ft | 21 kts | 221° |
| 2026-05-04 16:57 | 45.49983 | 12.33959 | 15 ft | 22 kts | 226° |
| 2026-05-04 16:57 | 45.49732 | 12.33653 | 16 ft | 25 kts | 208° |
| 2026-05-04 16:58 | 45.49456 | 12.33684 | 16 ft | 0 kts | 130° |
| 2026-05-04 16:58 | 45.49448 | 12.33697 | 16 ft | 3 kts | 129° |
| 2026-05-04 16:59 | 45.49443 | 12.33809 | 16 ft | 9 kts | 49° |
| 2026-05-04 17:00 | 45.49979 | 12.34503 | 14 ft | 113 kts | 42° |
| 2026-05-04 17:00 | 45.52383 | 12.37650 | 1048 ft | 165 kts | 49° |
| 2026-05-04 17:01 | 45.53650 | 12.40342 | 1967 ft | 174 kts | 88° |
| 2026-05-04 17:01 | 45.53429 | 12.44047 | 2455 ft | 205 kts | 102° |
| 2026-05-04 17:02 | 45.52926 | 12.48220 | 3305 ft | 217 kts | 103° |
| 2026-05-04 17:02 | 45.51633 | 12.52143 | 3820 ft | 240 kts | 148° |
| 2026-05-04 17:03 | 45.50061 | 12.52935 | 4206 ft | 244 kts | 180° |
| 2026-05-04 17:03 | 45.48347 | 12.52740 | 4666 ft | 256 kts | 188° |
| 2026-05-04 17:03 | 45.44707 | 12.52077 | 6040 ft | 270 kts | 189° |
| 2026-05-04 17:04 | 45.40937 | 12.51376 | 7591 ft | 275 kts | 189° |
| 2026-05-04 17:04 | 45.37127 | 12.50679 | 9206 ft | 277 kts | 189° |
| 2026-05-04 17:05 | 45.33317 | 12.49762 | 10684 ft | 280 kts | 200° |
| 2026-05-04 17:05 | 45.29784 | 12.47043 | 11491 ft | 308 kts | 211° |
| 2026-05-04 17:06 | 45.25882 | 12.43766 | 12195 ft | 336 kts | 210° |
| 2026-05-04 17:06 | 45.23857 | 12.42076 | 12896 ft | 339 kts | 209° |
| 2026-05-04 17:07 | 45.19749 | 12.38656 | 14225 ft | 346 kts | 209° |
| 2026-05-04 17:07 | 45.18373 | 12.37511 | 14617 ft | 348 kts | 209° |
| 2026-05-04 17:07 | 45.15559 | 12.35172 | 15411 ft | 353 kts | 210° |
| 2026-05-04 17:07 | 45.13429 | 12.33403 | 15989 ft | 357 kts | 210° |
| 2026-05-04 17:08 | 45.11275 | 12.31610 | 16561 ft | 361 kts | 210° |
| 2026-05-04 17:08 | 45.06698 | 12.28548 | 17667 ft | 371 kts | 196° |
| 2026-05-04 17:08 | 45.04134 | 12.27982 | 18217 ft | 377 kts | 185° |
| 2026-05-04 17:09 | 45.01498 | 12.27849 | 18686 ft | 381 kts | 184° |
| 2026-05-04 17:09 | 44.98833 | 12.27715 | 19163 ft | 384 kts | 184° |
| 2026-05-04 17:09 | 44.96151 | 12.27579 | 19635 ft | 387 kts | 184° |
| 2026-05-04 17:10 | 44.90733 | 12.27290 | 20589 ft | 392 kts | 184° |
| 2026-05-04 17:10 | 44.82465 | 12.26862 | 21979 ft | 400 kts | 184° |
| 2026-05-04 17:11 | 44.79673 | 12.26722 | 22436 ft | 403 kts | 184° |
| 2026-05-04 17:11 | 44.76857 | 12.26581 | 22891 ft | 406 kts | 184° |
| 2026-05-04 17:11 | 44.71175 | 12.26287 | 23752 ft | 411 kts | 184° |
| 2026-05-04 17:12 | 44.68310 | 12.26138 | 24111 ft | 414 kts | 184° |
| 2026-05-04 17:12 | 44.62531 | 12.25843 | 24883 ft | 417 kts | 184° |
| 2026-05-04 17:13 | 44.53772 | 12.25397 | 26022 ft | 422 kts | 184° |
| 2026-05-04 17:14 | 44.44886 | 12.24941 | 27033 ft | 429 kts | 184° |
| 2026-05-04 17:14 | 44.41895 | 12.24789 | 27376 ft | 431 kts | 184° |
| 2026-05-04 17:14 | 44.35867 | 12.24479 | 28059 ft | 435 kts | 184° |
| 2026-05-04 17:15 | 44.32833 | 12.24319 | 28369 ft | 438 kts | 185° |
| 2026-05-04 17:15 | 44.26684 | 12.23997 | 28726 ft | 448 kts | 184° |
| 2026-05-04 17:16 | 44.20372 | 12.23682 | 29013 ft | 459 kts | 184° |
| 2026-05-04 17:16 | 44.10651 | 12.23203 | 29428 ft | 472 kts | 184° |
| 2026-05-04 17:17 | 44.07363 | 12.23041 | 29595 ft | 474 kts | 184° |
| 2026-05-04 17:17 | 43.97481 | 12.22556 | 30326 ft | 473 kts | 184° |
| 2026-05-04 17:18 | 43.94191 | 12.22396 | 30537 ft | 474 kts | 185° |
| 2026-05-04 17:18 | 43.87584 | 12.22064 | 30906 ft | 476 kts | 186° |
| 2026-05-04 17:19 | 43.80976 | 12.21713 | 31388 ft | 474 kts | 186° |
| 2026-05-04 17:19 | 43.74388 | 12.21378 | 31893 ft | 473 kts | 186° |
| 2026-05-04 17:20 | 43.67814 | 12.21066 | 32421 ft | 472 kts | 186° |
| 2026-05-04 17:20 | 43.61264 | 12.20746 | 32926 ft | 470 kts | 186° |
| 2026-05-04 17:20 | 43.57995 | 12.20579 | 33096 ft | 470 kts | 186° |
| 2026-05-04 17:21 | 43.51452 | 12.20237 | 32723 ft | 473 kts | 187° |
| 2026-05-04 17:21 | 43.44873 | 12.19910 | 31475 ft | 474 kts | 186° |
| 2026-05-04 17:22 | 43.41571 | 12.19752 | 30890 ft | 476 kts | 186° |
| 2026-05-04 17:22 | 43.38238 | 12.19596 | 30298 ft | 481 kts | 186° |
| 2026-05-04 17:23 | 43.28121 | 12.19085 | 28459 ft | 488 kts | 186° |
| 2026-05-04 17:23 | 43.24725 | 12.18910 | 27868 ft | 489 kts | 186° |
| 2026-05-04 17:23 | 43.17945 | 12.18581 | 26010 ft | 488 kts | 185° |
| 2026-05-04 17:24 | 43.14543 | 12.18419 | 25251 ft | 490 kts | 185° |
| 2026-05-04 17:24 | 43.04233 | 12.17908 | 24477 ft | 496 kts | 184° |
| 2026-05-04 17:25 | 43.00812 | 12.17744 | 23848 ft | 488 kts | 184° |
| 2026-05-04 17:25 | 42.94100 | 12.17436 | 22568 ft | 481 kts | 184° |
| 2026-05-04 17:26 | 42.87513 | 12.16699 | 21124 ft | 466 kts | 189° |
| 2026-05-04 17:26 | 42.78174 | 12.15030 | 17151 ft | 438 kts | 190° |
| 2026-05-04 17:27 | 42.72386 | 12.14095 | 15208 ft | 395 kts | 189° |
| 2026-05-04 17:27 | 42.67980 | 12.13450 | 13930 ft | 362 kts | 189° |
| 2026-05-04 17:28 | 42.63378 | 12.12791 | 13458 ft | 306 kts | 189° |
| 2026-05-04 17:29 | 42.57298 | 12.11875 | 11421 ft | 284 kts | 189° |
| 2026-05-04 17:29 | 42.51516 | 12.11006 | 10130 ft | 277 kts | 188° |
| 2026-05-04 17:30 | 42.45771 | 12.10152 | 9723 ft | 276 kts | 188° |
| 2026-05-04 17:31 | 42.41965 | 12.09587 | 9461 ft | 275 kts | 188° |
| 2026-05-04 17:31 | 42.36317 | 12.10184 | 9042 ft | 287 kts | 163° |
| 2026-05-04 17:32 | 42.32470 | 12.11824 | 8788 ft | 290 kts | 163° |
| 2026-05-04 17:33 | 42.26699 | 12.14269 | 8282 ft | 289 kts | 163° |
| 2026-05-04 17:33 | 42.24791 | 12.15075 | 7923 ft | 287 kts | 163° |
| 2026-05-04 17:34 | 42.19141 | 12.17469 | 6803 ft | 280 kts | 163° |
| 2026-05-04 17:34 | 42.17286 | 12.18249 | 6434 ft | 278 kts | 163° |
| 2026-05-04 17:35 | 42.11736 | 12.19178 | 5232 ft | 255 kts | 181° |
| 2026-05-04 17:35 | 42.08404 | 12.19123 | 4618 ft | 224 kts | 181° |
| 2026-05-04 17:35 | 42.06865 | 12.19101 | 4323 ft | 220 kts | 181° |
| 2026-05-04 17:36 | 42.05346 | 12.19080 | 4024 ft | 217 kts | 181° |
| 2026-05-04 17:36 | 42.03847 | 12.19060 | 3737 ft | 214 kts | 181° |
| 2026-05-04 17:36 | 42.02373 | 12.19039 | 3458 ft | 210 kts | 181° |
| 2026-05-04 17:36 | 42.00940 | 12.19289 | 3226 ft | 207 kts | 162° |
| 2026-05-04 17:37 | 41.99582 | 12.19877 | 3178 ft | 196 kts | 163° |
| 2026-05-04 17:37 | 41.98360 | 12.20389 | 3173 ft | 175 kts | 163° |
| 2026-05-04 17:37 | 41.97216 | 12.20861 | 2978 ft | 171 kts | 163° |
| 2026-05-04 17:37 | 41.96067 | 12.21337 | 2525 ft | 174 kts | 163° |
| 2026-05-04 17:38 | 41.94939 | 12.21809 | 2203 ft | 166 kts | 163° |
| 2026-05-04 17:38 | 41.93874 | 12.22256 | 1960 ft | 154 kts | 163° |
| 2026-05-04 17:38 | 41.92871 | 12.22677 | 1743 ft | 149 kts | 163° |
| 2026-05-04 17:38 | 41.91891 | 12.23089 | 1541 ft | 147 kts | 163° |
| 2026-05-04 17:39 | 41.89956 | 12.23901 | 1153 ft | 145 kts | 163° |
| 2026-05-04 17:39 | 41.88996 | 12.24303 | 961 ft | 144 kts | 163° |
| 2026-05-04 17:39 | 41.88039 | 12.24703 | 768 ft | 144 kts | 163° |
| 2026-05-04 17:40 | 41.87084 | 12.25098 | 576 ft | 143 kts | 163° |
| 2026-05-04 17:40 | 41.86135 | 12.25508 | 384 ft | 143 kts | 163° |
| 2026-05-04 17:40 | 41.85183 | 12.25886 | 201 ft | 142 kts | 165° |
| 2026-05-04 17:40 | 41.84865 | 12.26023 | 139 ft | 142 kts | 162° |